This is the latest recevied weather packets stored in our database for station/object TG6YMD-19. If no packets are shown the sender has not sent any weather packets the latest 10 day(s).
| Time | Temp. | Humidity | Pressure | Rain* | Wind** | Luminosity | Snow |
|---|---|---|---|---|---|---|---|
| 1777736134 | 32.78° C | 46% | 1011 hPa | 0 mm | - | - | - |
| 1777735533 | 32.78° C | 46% | 1012 hPa | 0 mm | - | - | - |
| 1777734932 | 32.78° C | 46% | 1012 hPa | 0 mm | - | - | - |
| 1777734332 | 32.78° C | 46% | 1012 hPa | 0 mm | - | - | - |
| 1777733731 | 29.44° C | 54% | 1012 hPa | 0 mm | - | - | - |
| 1777733130 | 29.44° C | 54% | 1012 hPa | 0 mm | - | - | - |
| 1777732530 | 29.44° C | 54% | 1012 hPa | 0 mm | - | - | - |
| 1777731929 | 29.44° C | 54% | 1012 hPa | 0 mm | - | - | - |
| 1777731329 | 29.44° C | 54% | 1012 hPa | 0 mm | - | - | - |
| 1777730728 | 29.44° C | 54% | 1012 hPa | 0 mm | - | - | - |
| 1777730127 | 26.67° C | 69% | 1012 hPa | 0 mm | - | - | - |
| 1777729527 | 26.67° C | 69% | 1012 hPa | 0 mm | - | - | - |
| 1777728926 | 26.67° C | 69% | 1012 hPa | 0 mm | - | - | - |
| 1777728325 | 26.67° C | 69% | 1012 hPa | 0 mm | - | - | - |
| 1777727725 | 26.67° C | 69% | 1012 hPa | 0 mm | - | - | - |
| 1777727124 | 26.67° C | 69% | 1012 hPa | 0 mm | - | - | - |
| 1777726523 | 25.56° C | 73% | 1012 hPa | 0 mm | - | - | - |
| 1777725923 | 25.56° C | 73% | 1012 hPa | 0 mm | - | - | - |
| 1777725322 | 25.56° C | 73% | 1012 hPa | 0 mm | - | - | - |
| 1777724721 | 25.56° C | 73% | 1011 hPa | 0 mm | - | - | - |
| 1777724121 | 25.56° C | 73% | 1011 hPa | 0 mm | - | - | - |
| 1777723520 | 23.89° C | 86% | 1011 hPa | 0 mm | - | - | - |
| 1777722919 | 24.44° C | 86% | 1011 hPa | 0 mm | - | - | - |
| 1777722319 | 25° C | 86% | 1011 hPa | 0 mm | - | - | - |
| 1777721718 | 21.67° C | 85% | 1011 hPa | 0 mm | - | - | - |
* Rain latest hour (hover to see other rain measurements)
** Current wind speed in m/s (hover to see current wind gust speed)